Time;durP1;ratioP1;P1;durP2;ratioP2;P2;SDS_P1;SDS_P2;PMS_P1;PMS_P2;Temp;Humidity;BMP_temperature;BMP_pressure;BME280_temperature;BME280_humidity;BME280_pressure;Samples;Min_cycle;Max_cycle;Signal;HPM_P1;HPM_P2
2023/01/14 00:02:24;;;;;;;18.52;3.88;;;9.10;94.80;;;;;;5060345;28;20730;-77
2023/01/14 00:04:50;;;;;;;13.48;4.20;;;9.10;95.00;;;;;;5049724;28;20036;-77
2023/01/14 00:07:16;;;;;;;25.00;3.80;;;9.00;95.30;;;;;;5044240;28;20025;-78
2023/01/14 00:09:42;;;;;;;19.58;3.58;;;9.00;95.40;;;;;;5031649;28;20037;-77
2023/01/14 00:12:08;;;;;;;15.90;3.35;;;9.00;95.50;;;;;;5015220;28;20021;-77
2023/01/14 00:14:33;;;;;;;27.60;5.75;;;9.00;95.60;;;;;;5052120;28;20032;-77
2023/01/14 00:17:00;;;;;;;27.42;4.78;;;8.90;95.80;;;;;;5048322;28;20036;-78
2023/01/14 00:19:26;;;;;;;17.65;4.15;;;8.90;95.80;;;;;;5049977;28;20032;-76
2023/01/14 00:21:55;;;;;;;15.40;2.58;;;8.90;95.90;;;;;;5022639;28;20016;-76
2023/01/14 00:24:21;;;;;;;21.70;4.38;;;8.90;96.00;;;;;;5054523;28;20135;-76
2023/01/14 00:26:53;;;;;;;18.52;3.45;;;8.90;95.90;;;;;;5020395;28;20057;-77
2023/01/14 00:29:21;;;;;;;27.83;4.07;;;8.80;96.00;;;;;;5017538;28;20337;-77
2023/01/14 00:31:47;;;;;;;23.58;5.10;;;8.80;96.00;;;;;;4999446;28;20030;-77
2023/01/14 00:34:14;;;;;;;19.58;4.03;;;8.70;96.10;;;;;;5015585;28;20032;-77
2023/01/14 00:36:41;;;;;;;18.20;3.67;;;8.70;96.20;;;;;;5012239;28;20061;-77
2023/01/14 00:39:07;;;;;;;18.63;4.32;;;8.70;96.30;;;;;;5009288;28;20504;-77
2023/01/14 00:41:33;;;;;;;26.10;4.90;;;8.60;96.40;;;;;;5005766;28;20033;-77
2023/01/14 00:43:59;;;;;;;18.58;3.90;;;8.60;96.40;;;;;;5000478;28;20070;-77
2023/01/14 00:46:28;;;;;;;20.20;4.60;;;8.60;96.50;;;;;;4995620;28;20036;-77
2023/01/14 00:48:54;;;;;;;20.88;5.03;;;8.60;96.50;;;;;;5015136;28;20024;-77
2023/01/14 00:51:20;;;;;;;20.30;3.70;;;8.50;96.60;;;;;;4995008;28;20030;-77
2023/01/14 00:53:47;;;;;;;27.80;4.25;;;8.50;96.60;;;;;;5002661;28;20507;-77
2023/01/14 00:56:14;;;;;;;20.10;4.47;;;8.50;96.80;;;;;;5015249;28;20109;-77
2023/01/14 00:58:40;;;;;;;21.30;4.47;;;8.50;96.80;;;;;;5016479;28;20029;-77
2023/01/14 01:01:05;;;;;;;25.83;4.63;;;8.40;97.00;;;;;;5008947;28;20023;-76
2023/01/14 01:03:32;;;;;;;28.23;4.70;;;8.50;97.10;;;;;;4998938;28;20080;-77
2023/01/14 01:05:58;;;;;;;29.48;5.90;;;8.50;97.20;;;;;;5001805;28;20022;-77
2023/01/14 01:08:24;;;;;;;28.38;3.90;;;8.50;97.20;;;;;;4997744;28;20022;-77
2023/01/14 01:10:51;;;;;;;23.17;4.07;;;8.50;97.30;;;;;;5004490;28;20085;-76
2023/01/14 01:13:18;;;;;;;30.17;3.83;;;8.50;97.40;;;;;;4991642;28;20084;-77
2023/01/14 01:15:44;;;;;;;20.38;4.22;;;8.50;97.40;;;;;;5000777;28;20028;-77
2023/01/14 01:18:11;;;;;;;25.08;4.40;;;8.50;97.40;;;;;;5007400;28;20025;-76
2023/01/14 01:20:38;;;;;;;23.20;3.60;;;8.50;97.40;;;;;;5019066;28;20029;-77
2023/01/14 01:23:05;;;;;;;24.02;4.82;;;8.50;97.40;;;;;;5003857;28;20030;-76
2023/01/14 01:25:30;;;;;;;23.42;3.92;;;8.50;97.40;;;;;;5004150;28;20023;-78
2023/01/14 01:27:58;;;;;;;21.90;4.70;;;8.50;97.40;;;;;;5037634;28;20072;-77
2023/01/14 01:30:24;;;;;;;22.08;4.32;;;8.50;97.40;;;;;;5044058;28;20040;-77
2023/01/14 01:32:52;;;;;;;23.80;4.10;;;8.40;97.50;;;;;;5046421;28;20021;-77
2023/01/14 01:35:18;;;;;;;23.85;5.07;;;8.40;97.50;;;;;;5028249;28;20025;-77
2023/01/14 01:37:43;;;;;;;21.83;4.00;;;8.40;97.50;;;;;;5034098;28;20017;-78
2023/01/14 01:40:11;;;;;;;20.45;4.38;;;8.40;97.40;;;;;;5043689;28;20463;-76
2023/01/14 01:42:54;;;;;;;21.80;4.35;;;8.40;97.30;;;;;;5056305;28;20037;-78
2023/01/14 01:45:31;;;;;;;22.50;4.68;;;8.30;97.40;;;;;;5034894;28;20048;-77
2023/01/14 01:48:14;;;;;;;19.30;4.45;;;8.30;97.20;;;;;;5028342;28;20029;-77
2023/01/14 01:50:41;;;;;;;26.52;3.90;;;8.30;97.20;;;;;;5046288;28;20024;-77
2023/01/14 01:53:08;;;;;;;19.02;4.40;;;8.20;97.50;;;;;;5065618;28;20445;-77
2023/01/14 01:55:37;;;;;;;27.20;6.32;;;8.20;97.20;;;;;;5046345;28;20024;-77
2023/01/14 01:58:04;;;;;;;17.30;4.25;;;8.20;97.10;;;;;;5056175;28;20101;-77
2023/01/14 02:00:29;;;;;;;14.60;4.03;;;8.20;97.10;;;;;;5042254;28;20095;-77
2023/01/14 02:03:03;;;;;;;25.98;4.95;;;8.10;97.10;;;;;;5021875;28;20088;-77
2023/01/14 02:05:29;;;;;;;23.30;4.18;;;8.10;97.00;;;;;;5044155;28;20134;-77
2023/01/14 02:07:57;;;;;;;37.58;4.95;;;8.10;97.00;;;;;;5047781;28;20025;-77
2023/01/14 02:10:36;;;;;;;23.05;4.32;;;8.10;96.90;;;;;;5035332;28;20464;-77
2023/01/14 02:13:28;;;;;;;20.80;4.53;;;8.10;96.90;;;;;;5037570;28;20032;-77
2023/01/14 02:16:14;;;;;;;23.20;3.88;;;8.10;96.80;;;;;;5015836;28;20056;-79
2023/01/14 02:19:15;;;;;;;20.05;4.90;;;8.10;96.80;;;;;;5045967;28;20032;-77
2023/01/14 02:21:47;;;;;;;27.05;5.05;;;8.10;96.90;;;;;;5038584;28;20365;-77
2023/01/14 02:24:31;;;;;;;26.75;4.50;;;8.00;96.80;;;;;;5055986;28;20029;-78
2023/01/14 02:27:00;;;;;;;18.60;3.70;;;8.00;96.80;;;;;;5047561;28;20064;-77
2023/01/14 02:29:53;;;;;;;29.70;4.97;;;8.00;96.80;;;;;;5056850;28;20100;-79
2023/01/14 02:32:25;;;;;;;24.05;4.40;;;8.00;96.80;;;;;;5031383;28;20040;-78
2023/01/14 02:35:09;;;;;;;21.05;5.30;;;8.00;96.70;;;;;;5043336;28;20026;-78
2023/01/14 02:38:02;;;;;;;19.33;3.38;;;8.00;96.70;;;;;;5045978;28;20036;-77
2023/01/14 02:41:04;;;;;;;22.02;4.13;;;7.90;96.70;;;;;;5049529;28;20060;-77
2023/01/14 02:44:07;;;;;;;13.45;3.38;;;7.90;96.70;;;;;;5024325;28;20095;-78
2023/01/14 02:46:55;;;;;;;22.95;4.07;;;7.90;96.60;;;;;;5035754;28;20039;-79
2023/01/14 02:49:24;;;;;;;28.52;5.18;;;7.90;96.60;;;;;;5048948;28;20112;-77
2023/01/14 02:51:50;;;;;;;26.65;5.00;;;7.80;96.60;;;;;;5039562;28;20029;-77
2023/01/14 02:54:19;;;;;;;26.55;5.65;;;7.80;96.70;;;;;;5021108;28;20040;-77
2023/01/14 02:56:50;;;;;;;26.95;5.28;;;7.80;96.70;;;;;;5024754;28;20480;-77
2023/01/14 02:59:42;;;;;;;20.98;5.05;;;7.70;96.70;;;;;;5024026;28;20089;-78
2023/01/14 03:02:33;;;;;;;26.55;5.20;;;7.70;96.60;;;;;;5037540;28;20467;-78
2023/01/14 03:05:08;;;;;;;35.25;7.25;;;7.70;96.70;;;;;;5055080;28;20041;-76
2023/01/14 03:07:36;;;;;;;30.17;5.82;;;7.70;96.80;;;;;;5036912;28;20051;-76
2023/01/14 03:10:16;;;;;;;20.55;3.70;;;7.60;96.90;;;;;;5042502;28;20029;-77
2023/01/14 03:13:05;;;;;;;23.60;5.10;;;7.60;97.00;;;;;;5040696;28;20029;-78
2023/01/14 03:15:58;;;;;;;27.67;5.85;;;7.60;97.30;;;;;;5048126;28;20710;-78
2023/01/14 03:18:39;;;;;;;22.38;5.68;;;7.60;97.00;;;;;;5027358;28;20041;-77
2023/01/14 03:21:10;;;;;;;23.05;4.10;;;7.60;97.10;;;;;;5035099;28;20029;-78
2023/01/14 03:23:42;;;;;;;23.75;4.35;;;7.50;97.20;;;;;;5031940;28;20032;-76
2023/01/14 03:26:09;;;;;;;25.60;4.38;;;7.50;97.30;;;;;;5041867;28;20116;-78
2023/01/14 03:28:40;;;;;;;36.00;7.20;;;7.50;97.40;;;;;;5038263;28;20089;-78
2023/01/14 03:31:10;;;;;;;23.73;4.78;;;7.50;97.40;;;;;;5041798;28;20021;-78
2023/01/14 03:33:48;;;;;;;24.83;4.25;;;7.40;97.40;;;;;;5045333;28;20005;-77
2023/01/14 03:36:15;;;;;;;29.67;6.53;;;7.40;97.40;;;;;;5035638;28;20037;-77
2023/01/14 03:38:51;;;;;;;35.70;5.40;;;7.50;97.50;;;;;;5043028;28;20020;-77
2023/01/14 03:44:28;;;;;;;33.97;5.65;;;7.50;97.30;;;;;;5014603;28;20044;-78
2023/01/14 03:46:55;;;;;;;27.50;5.47;;;7.50;97.30;;;;;;5036375;28;20557;-77
2023/01/14 03:49:21;;;;;;;35.08;6.38;;;7.50;97.40;;;;;;5046019;28;20091;-78
2023/01/14 03:52:08;;;;;;;32.13;6.28;;;7.50;97.40;;;;;;5049300;28;20041;-77
2023/01/14 03:54:50;;;;;;;32.67;6.30;;;7.50;97.40;;;;;;5017803;28;20045;-77
2023/01/14 03:57:32;;;;;;;28.65;6.55;;;7.50;97.60;;;;;;5034752;28;20017;-78
2023/01/14 04:00:19;;;;;;;43.83;8.48;;;7.40;97.70;;;;;;5049177;28;20036;-77
2023/01/14 04:02:46;;;;;;;33.97;6.40;;;7.50;97.70;;;;;;5050959;28;20430;-75
2023/01/14 04:05:12;;;;;;;38.00;6.82;;;7.50;97.80;;;;;;5049104;28;20098;-76
2023/01/14 04:07:38;;;;;;;36.45;6.88;;;7.50;97.90;;;;;;5056410;28;20024;-76
2023/01/14 04:10:04;;;;;;;35.92;6.07;;;7.40;98.00;;;;;;5043157;28;20029;-77
2023/01/14 04:12:30;;;;;;;40.80;7.63;;;7.40;98.10;;;;;;5033837;28;20032;-77
2023/01/14 04:17:39;;;;;;;25.75;5.40;;;7.50;98.10;;;;;;5039339;28;20060;-77
2023/01/14 04:20:06;;;;;;;25.33;4.13;;;7.50;98.10;;;;;;5038446;28;20045;-77
2023/01/14 04:22:32;;;;;;;33.08;5.25;;;7.50;98.10;;;;;;5044780;28;20037;-77
2023/01/14 04:24:58;;;;;;;30.08;4.93;;;7.50;98.20;;;;;;5052221;28;20080;-76
2023/01/14 04:27:23;;;;;;;43.75;6.50;;;7.50;98.20;;;;;;5040795;28;20040;-77
2023/01/14 04:29:49;;;;;;;23.20;5.82;;;7.60;98.20;;;;;;5048490;28;20487;-76
2023/01/14 04:32:15;;;;;;;18.48;3.75;;;7.60;98.20;;;;;;5046798;28;20052;-77
2023/01/14 04:34:40;;;;;;;25.42;4.88;;;7.60;98.20;;;;;;5037012;28;20053;-77
2023/01/14 04:37:07;;;;;;;24.80;5.45;;;7.60;98.10;;;;;;5045037;28;20055;-77
2023/01/14 04:39:34;;;;;;;33.58;5.65;;;7.70;98.20;;;;;;5044353;28;20068;-78
2023/01/14 04:44:46;;;;;;;36.67;6.57;;;7.60;98.10;;;;;;5050098;28;20098;-77
2023/01/14 04:47:12;;;;;;;40.42;5.57;;;7.60;98.20;;;;;;5063856;28;20350;-78
2023/01/14 04:49:38;;;;;;;26.20;4.82;;;7.60;98.20;;;;;;5030754;28;20572;-78
2023/01/14 04:52:04;;;;;;;29.23;5.82;;;7.70;98.20;;;;;;5048706;28;20021;-77
2023/01/14 04:54:29;;;;;;;22.83;4.70;;;7.70;98.20;;;;;;5034619;28;20040;-77
2023/01/14 04:56:55;;;;;;;27.58;4.60;;;7.70;98.30;;;;;;5051998;28;20020;-77
2023/01/14 04:59:21;;;;;;;37.08;5.57;;;7.60;98.20;;;;;;5058160;28;20103;-77
2023/01/14 05:01:46;;;;;;;36.17;4.93;;;7.70;98.30;;;;;;5065828;28;20083;-78
2023/01/14 05:04:12;;;;;;;31.52;6.63;;;7.60;98.30;;;;;;5011596;28;20064;-78
2023/01/14 05:06:38;;;;;;;25.17;4.28;;;7.60;98.30;;;;;;5037855;28;20103;-78
2023/01/14 05:09:04;;;;;;;35.13;7.28;;;7.60;98.40;;;;;;5047661;28;20028;-77
2023/01/14 05:11:30;;;;;;;26.30;5.70;;;7.60;98.40;;;;;;5024712;28;20029;-77
2023/01/14 05:13:55;;;;;;;16.00;3.42;;;7.60;98.40;;;;;;5030201;28;20025;-76
2023/01/14 05:16:23;;;;;;;22.20;4.47;;;7.60;98.40;;;;;;5032295;28;20028;-78
2023/01/14 05:18:49;;;;;;;34.95;6.60;;;7.60;98.50;;;;;;5045956;28;20094;-77
2023/01/14 05:21:15;;;;;;;44.75;7.93;;;7.60;98.40;;;;;;5037018;28;20029;-76
2023/01/14 05:23:40;;;;;;;30.98;5.68;;;7.70;98.50;;;;;;5048114;28;20530;-77
2023/01/14 05:26:06;;;;;;;27.15;4.88;;;7.70;98.50;;;;;;5033497;28;20419;-76
2023/01/14 05:28:32;;;;;;;18.10;3.60;;;7.60;98.50;;;;;;5033600;28;20464;-77
2023/01/14 05:30:58;;;;;;;38.92;7.38;;;7.70;98.60;;;;;;5042420;28;20029;-78
2023/01/14 05:33:23;;;;;;;34.08;4.95;;;7.60;98.60;;;;;;5033903;28;20018;-76
2023/01/14 05:35:54;;;;;;;25.60;4.15;;;7.70;98.60;;;;;;5056929;28;20032;-76
2023/01/14 05:38:20;;;;;;;31.25;5.85;;;7.60;98.50;;;;;;5047584;28;20025;-76
2023/01/14 05:40:49;;;;;;;46.28;7.20;;;7.50;98.70;;;;;;5038047;28;20411;-77
2023/01/14 05:46:17;;;;;;;24.48;4.85;;;7.60;98.70;;;;;;5036852;28;20114;-77
2023/01/14 05:48:43;;;;;;;22.65;4.85;;;7.60;98.70;;;;;;5061582;28;20530;-77
2023/01/14 05:51:13;;;;;;;22.55;4.50;;;7.70;98.70;;;;;;5063262;28;20100;-77
2023/01/14 05:53:39;;;;;;;30.23;5.30;;;7.70;98.70;;;;;;5056612;28;20506;-76
2023/01/14 05:56:05;;;;;;;34.17;6.65;;;7.70;98.70;;;;;;5059636;28;20036;-76
2023/01/14 05:58:31;;;;;;;27.30;4.68;;;7.60;98.60;;;;;;5051184;28;20029;-76
2023/01/14 06:06:37;;;;;;;35.88;5.93;;;7.70;98.60;;;;;;5049905;28;20919;-76
2023/01/14 06:09:09;;;;;;;16.95;3.92;;;7.70;98.50;;;;;;5046219;28;20036;-77
2023/01/14 06:11:36;;;;;;;15.02;3.65;;;7.70;98.60;;;;;;5064427;28;20025;-76
2023/01/14 06:14:03;;;;;;;33.97;5.22;;;7.70;98.60;;;;;;5057274;28;20082;-75
2023/01/14 06:16:32;;;;;;;26.23;5.07;;;7.70;98.60;;;;;;5049078;28;20365;-75
2023/01/14 06:18:58;;;;;;;29.85;5.80;;;7.70;98.50;;;;;;5042183;28;20036;-77
2023/01/14 06:21:29;;;;;;;26.60;4.82;;;7.70;98.50;;;;;;5055795;28;20494;-77
2023/01/14 06:23:55;;;;;;;19.05;4.35;;;7.70;98.40;;;;;;5031312;28;20074;-75
2023/01/14 06:26:27;;;;;;;19.88;4.13;;;7.80;98.40;;;;;;5054373;28;20049;-77
2023/01/14 06:28:57;;;;;;;24.77;4.45;;;7.70;98.30;;;;;;5046967;28;20033;-76
2023/01/14 06:31:22;;;;;;;17.55;4.28;;;7.80;98.20;;;;;;5049372;28;20094;-76
2023/01/14 06:33:48;;;;;;;24.48;4.55;;;7.80;98.20;;;;;;5031004;28;20048;-75
2023/01/14 06:36:14;;;;;;;25.27;4.43;;;7.80;98.10;;;;;;5052507;28;20047;-74
2023/01/14 06:38:40;;;;;;;23.50;3.72;;;7.80;98.10;;;;;;5047747;28;20059;-76
2023/01/14 06:41:09;;;;;;;19.40;3.92;;;7.80;98.10;;;;;;5060562;28;20013;-76
2023/01/14 06:43:35;;;;;;;25.70;4.78;;;7.80;98.10;;;;;;5049660;28;20036;-76
2023/01/14 06:46:02;;;;;;;27.27;5.40;;;7.80;98.00;;;;;;5050229;28;20024;-75
2023/01/14 06:48:28;;;;;;;23.15;5.05;;;7.80;97.90;;;;;;5058975;28;20052;-76
2023/01/14 06:50:54;;;;;;;24.65;3.35;;;7.90;98.00;;;;;;5026564;28;20056;-77
2023/01/14 06:53:22;;;;;;;26.77;5.03;;;7.90;98.00;;;;;;5044275;28;20029;-75
2023/01/14 06:55:48;;;;;;;23.42;4.43;;;7.90;97.90;;;;;;5042634;28;20029;-75
2023/01/14 06:58:14;;;;;;;18.52;4.72;;;7.90;97.90;;;;;;5038425;28;20497;-76
2023/01/14 07:00:40;;;;;;;24.80;4.88;;;7.90;97.90;;;;;;5057228;28;20071;-77
2023/01/14 07:03:05;;;;;;;21.83;4.00;;;8.00;97.80;;;;;;5047955;28;20029;-76
2023/01/14 07:05:31;;;;;;;23.70;3.40;;;8.00;97.90;;;;;;5037546;28;20034;-77
2023/01/14 07:07:57;;;;;;;24.33;4.72;;;8.00;97.80;;;;;;5067301;28;20040;-77
2023/01/14 07:10:22;;;;;;;21.33;4.30;;;8.00;97.70;;;;;;5034655;28;20021;-76
2023/01/14 07:12:51;;;;;;;26.15;4.18;;;8.00;97.70;;;;;;5061491;28;20055;-77
2023/01/14 07:15:20;;;;;;;23.23;4.55;;;8.00;97.70;;;;;;5039684;28;20029;-76
2023/01/14 07:17:52;;;;;;;30.73;4.68;;;8.00;97.70;;;;;;5057345;28;20022;-76
2023/01/14 07:20:19;;;;;;;22.17;3.30;;;8.00;97.80;;;;;;5033995;28;20040;-77
2023/01/14 07:22:45;;;;;;;21.25;3.22;;;8.00;97.90;;;;;;5043649;28;20029;-74
2023/01/14 07:25:11;;;;;;;31.90;4.68;;;8.00;98.10;;;;;;5037553;28;20040;-76
2023/01/14 07:27:36;;;;;;;25.60;4.53;;;8.00;98.10;;;;;;5041119;28;20057;-77
2023/01/14 07:30:03;;;;;;;29.85;4.55;;;8.00;98.20;;;;;;5034641;28;20032;-77
2023/01/14 07:32:32;;;;;;;23.92;4.35;;;8.00;98.20;;;;;;5059698;28;20536;-77
2023/01/14 07:34:57;;;;;;;23.80;4.43;;;8.00;98.40;;;;;;5038266;28;20433;-76
2023/01/14 07:37:23;;;;;;;21.77;4.45;;;8.00;98.40;;;;;;5052464;28;20025;-76
2023/01/14 07:39:48;;;;;;;32.38;5.07;;;8.00;98.40;;;;;;5040894;28;20025;-77
2023/01/14 07:42:19;;;;;;;23.67;4.68;;;8.00;98.40;;;;;;5052304;28;20488;-76
2023/01/14 07:44:45;;;;;;;20.10;2.92;;;8.00;98.60;;;;;;5055857;28;20597;-76
2023/01/14 07:47:16;;;;;;;24.48;4.28;;;7.90;98.60;;;;;;5044426;28;20028;-76
2023/01/14 07:49:42;;;;;;;19.27;3.45;;;7.90;98.80;;;;;;5048759;28;20029;-77
2023/01/14 07:52:12;;;;;;;23.83;4.22;;;7.90;98.90;;;;;;5045196;28;20066;-76
2023/01/14 07:54:38;;;;;;;;;;;7.90;98.90;;;;;;5052921;28;20393;-75
2023/01/14 07:57:04;;;;;;;13.98;3.40;;;7.90;98.90;;;;;;5041245;28;19909;-76
2023/01/14 07:59:29;;;;;;;22.63;3.60;;;7.90;99.10;;;;;;5055196;28;20017;-76
2023/01/14 08:01:55;;;;;;;21.67;3.92;;;7.80;99.30;;;;;;5045915;28;20021;-78
2023/01/14 08:04:21;;;;;;;18.75;3.47;;;7.80;99.40;;;;;;5060674;28;20104;-77
2023/01/14 08:06:46;;;;;;;20.17;4.50;;;7.80;99.40;;;;;;5035627;28;20041;-77
2023/01/14 08:09:13;;;;;;;11.98;2.88;;;7.80;99.50;;;;;;5064004;28;20083;-77
2023/01/14 08:11:40;;;;;;;20.05;4.50;;;7.80;99.50;;;;;;5044970;28;20021;-77
2023/01/14 08:14:06;;;;;;;23.02;4.80;;;7.80;99.70;;;;;;5062677;28;20017;-80
2023/01/14 08:16:31;;;;;;;19.77;2.88;;;7.80;99.70;;;;;;5065610;28;20051;-80
2023/01/14 08:18:57;;;;;;;15.52;3.53;;;7.80;99.80;;;;;;5057112;28;20040;-77
2023/01/14 08:21:23;;;;;;;12.15;2.53;;;7.80;99.70;;;;;;5064216;28;20032;-79
2023/01/14 08:23:48;;;;;;;17.20;4.20;;;7.80;99.90;;;;;;5058082;28;20491;-78
2023/01/14 08:26:14;;;;;;;22.23;3.45;;;7.90;99.70;;;;;;5063178;28;20148;-79
2023/01/14 08:28:41;;;;;;;14.88;3.45;;;7.90;99.70;;;;;;5040909;28;20031;-79
2023/01/14 08:31:12;;;;;;;18.77;2.60;;;7.90;99.70;;;;;;5045698;28;20033;-78
2023/01/14 08:33:39;;;;;;;19.63;4.18;;;8.00;99.90;;;;;;5045086;28;20025;-78
2023/01/14 08:36:09;;;;;;;21.08;4.40;;;8.00;99.70;;;;;;5059501;28;20032;-78
2023/01/14 08:38:44;;;;;;;11.60;3.28;;;8.00;99.70;;;;;;5064171;28;20025;-79
2023/01/14 08:41:13;;;;;;;9.32;2.78;;;8.00;99.90;;;;;;5056105;28;20048;-80
2023/01/14 08:43:39;;;;;;;17.92;3.95;;;8.10;99.70;;;;;;5052290;28;20032;-78
2023/01/14 08:46:08;;;;;;;18.90;4.18;;;8.10;99.90;;;;;;5040545;28;20080;-81
2023/01/14 08:48:35;;;;;;;16.65;3.15;;;8.00;99.90;;;;;;5046687;28;20025;-79
2023/01/14 08:51:06;;;;;;;14.90;2.47;;;8.10;99.90;;;;;;5033599;28;20025;-77
2023/01/14 08:53:34;;;;;;;13.85;3.60;;;8.00;99.90;;;;;;5038812;28;20030;-78
2023/01/14 08:56:01;;;;;;;14.35;4.88;;;8.10;99.90;;;;;;5047034;28;20031;-79
2023/01/14 08:58:28;;;;;;;10.85;3.05;;;8.10;99.90;;;;;;5061313;28;20048;-78
2023/01/14 09:01:02;;;;;;;14.02;3.67;;;8.10;99.90;;;;;;5054569;28;20078;-76
2023/01/14 09:03:30;;;;;;;13.82;2.90;;;8.10;99.90;;;;;;5048089;28;20037;-76
2023/01/14 09:06:00;;;;;;;7.43;2.30;;;8.20;99.90;;;;;;5046526;28;20036;-77
2023/01/14 09:19:26;;;;;;;16.90;3.20;;;8.20;99.90;;;;;;5036915;28;20182;-78
2023/01/14 09:21:51;;;;;;;9.77;2.22;;;8.30;99.90;;;;;;5053788;28;20021;-78
2023/01/14 09:24:17;;;;;;;12.30;2.90;;;8.30;99.90;;;;;;5044428;28;20506;-78
2023/01/14 09:26:43;;;;;;;9.38;3.00;;;8.40;99.90;;;;;;5034770;28;20034;-79
2023/01/14 09:29:09;;;;;;;9.80;2.67;;;8.40;99.90;;;;;;5034328;28;20043;-78
2023/01/14 09:31:34;;;;;;;8.70;2.42;;;8.50;99.90;;;;;;5024393;28;20029;-77
2023/01/14 09:34:00;;;;;;;12.45;2.53;;;8.50;99.90;;;;;;5039840;28;20455;-77
2023/01/14 09:36:26;;;;;;;13.60;2.88;;;8.50;99.90;;;;;;5039754;28;20029;-79
2023/01/14 09:38:52;;;;;;;13.07;2.92;;;8.50;99.90;;;;;;5032058;28;20081;-77
2023/01/14 09:41:27;;;;;;;13.15;2.92;;;8.50;99.90;;;;;;5022205;28;20017;-80
2023/01/14 09:43:56;;;;;;;14.77;3.30;;;8.50;99.90;;;;;;5047839;28;20486;-78
2023/01/14 09:46:27;;;;;;;9.38;2.50;;;8.60;99.90;;;;;;5039692;28;20471;-80
2023/01/14 09:48:59;;;;;;;9.73;2.72;;;8.60;99.90;;;;;;5050123;28;20033;-76
2023/01/14 09:52:02;;;;;;;10.52;2.42;;;8.70;99.90;;;;;;5044639;28;20027;-78
2023/01/14 09:54:51;;;;;;;7.47;2.22;;;8.70;99.90;;;;;;5049071;28;20036;-79
2023/01/14 09:57:37;;;;;;;9.05;2.22;;;8.70;99.90;;;;;;5042458;28;20036;-79
2023/01/14 10:00:15;;;;;;;6.30;1.83;;;8.70;99.90;;;;;;5038929;28;20528;-77
2023/01/14 10:02:54;;;;;;;9.20;2.17;;;8.80;99.90;;;;;;5034175;28;20017;-78
2023/01/14 10:05:29;;;;;;;12.48;2.47;;;8.80;99.90;;;;;;5039820;28;20041;-77
2023/01/14 10:07:57;;;;;;;8.15;1.95;;;8.80;99.90;;;;;;5049633;28;20053;-78
2023/01/14 10:10:32;;;;;;;7.55;2.10;;;8.90;99.90;;;;;;5051981;28;20066;-77
2023/01/14 10:13:04;;;;;;;5.20;1.70;;;8.90;99.90;;;;;;5054555;28;20033;-78
2023/01/14 10:15:48;;;;;;;6.35;1.33;;;8.90;99.90;;;;;;5032505;28;20506;-76
2023/01/14 10:18:21;;;;;;;7.75;1.75;;;8.90;99.90;;;;;;5052683;28;20835;-76
2023/01/14 10:20:53;;;;;;;7.75;2.05;;;9.00;99.90;;;;;;5061188;28;20082;-76
2023/01/14 10:23:42;;;;;;;7.60;1.95;;;8.90;99.90;;;;;;5058850;28;20024;-76
2023/01/14 10:26:17;;;;;;;9.40;2.13;;;8.90;99.90;;;;;;5030420;28;20038;-78
2023/01/14 10:28:45;;;;;;;9.35;2.60;;;9.00;99.90;;;;;;5050198;28;20045;-76
2023/01/14 10:31:18;;;;;;;8.05;2.67;;;9.00;99.90;;;;;;5041227;28;20033;-78
2023/01/14 10:33:46;;;;;;;11.80;3.00;;;9.00;99.90;;;;;;5033144;28;20029;-76
2023/01/14 10:36:19;;;;;;;9.40;2.40;;;9.00;99.90;;;;;;5052993;28;20021;-77
2023/01/14 10:38:45;;;;;;;5.38;2.20;;;9.00;99.90;;;;;;5048398;28;20044;-76
2023/01/14 10:41:13;;;;;;;8.13;1.85;;;9.10;99.90;;;;;;5032149;28;20372;-74
2023/01/14 10:43:47;;;;;;;10.30;1.80;;;9.10;99.90;;;;;;5050146;28;20024;-75
2023/01/14 10:46:18;;;;;;;3.60;1.42;;;9.10;99.90;;;;;;5064446;28;20057;-75
2023/01/14 10:49:25;;;;;;;8.43;2.08;;;9.10;99.90;;;;;;5051630;28;20029;-73
2023/01/14 10:51:50;;;;;;;9.82;2.30;;;9.10;99.90;;;;;;5000094;28;20117;-75
2023/01/14 10:54:24;;;;;;;9.05;1.77;;;9.20;99.90;;;;;;5053375;28;20125;-75
2023/01/14 10:57:15;;;;;;;7.05;1.75;;;9.10;99.90;;;;;;5029950;28;20064;-73
2023/01/14 10:59:50;;;;;;;4.65;1.42;;;9.20;99.90;;;;;;5048699;28;20059;-77
2023/01/14 11:02:38;;;;;;;10.85;1.50;;;9.20;99.90;;;;;;5032283;28;20523;-77
2023/01/14 11:05:26;;;;;;;7.25;1.50;;;9.30;99.90;;;;;;5044755;28;20044;-76
2023/01/14 11:07:53;;;;;;;8.95;1.70;;;9.30;99.90;;;;;;5047497;28;20155;-74
2023/01/14 11:10:23;;;;;;;7.53;1.80;;;9.40;99.90;;;;;;5031321;28;20813;-75
2023/01/14 11:12:51;;;;;;;6.80;1.60;;;9.40;99.90;;;;;;5057638;28;20017;-74
2023/01/14 11:15:38;;;;;;;10.55;1.92;;;9.40;99.90;;;;;;5046399;28;20041;-77
2023/01/14 11:18:23;;;;;;;9.00;1.70;;;9.40;99.90;;;;;;5052001;28;20056;-75
2023/01/14 11:21:07;;;;;;;8.43;1.80;;;9.50;99.90;;;;;;5052639;28;20067;-74
2023/01/14 11:23:38;;;;;;;6.78;1.60;;;9.50;99.90;;;;;;5035036;28;20021;-76
2023/01/14 11:26:08;;;;;;;8.48;1.15;;;9.40;99.90;;;;;;5047869;28;20479;-77
2023/01/14 11:28:38;;;;;;;10.77;2.28;;;9.50;99.90;;;;;;5038921;28;20127;-76
2023/01/14 11:31:05;;;;;;;3.88;1.33;;;9.60;99.90;;;;;;5053145;28;20070;-77
2023/01/14 11:33:32;;;;;;;8.77;1.70;;;9.60;99.90;;;;;;5041145;28;20446;-76
2023/01/14 11:35:58;;;;;;;6.78;1.98;;;9.60;99.90;;;;;;5055246;28;20028;-78
2023/01/14 11:38:26;;;;;;;10.15;2.47;;;9.60;99.90;;;;;;5037526;28;20020;-77
2023/01/14 11:44:16;;;;;;;6.80;2.00;;;9.70;99.90;;;;;;5040539;28;20052;-78
2023/01/14 11:46:44;;;;;;;7.90;1.65;;;9.60;99.90;;;;;;4976193;28;20026;-76
2023/01/14 11:49:12;;;;;;;7.15;1.80;;;9.70;99.90;;;;;;5037682;28;20140;-76
2023/01/14 11:51:40;;;;;;;7.07;1.67;;;9.70;99.90;;;;;;5053761;28;20024;-77
2023/01/14 11:54:17;;;;;;;5.07;1.33;;;9.70;99.90;;;;;;5011155;28;20124;-78
2023/01/14 11:56:44;;;;;;;5.18;1.45;;;9.70;99.90;;;;;;5051679;28;20575;-75
2023/01/14 11:59:31;;;;;;;6.88;2.10;;;9.80;99.90;;;;;;5028876;28;20041;-77
2023/01/14 12:02:04;;;;;;;6.10;1.15;;;9.80;99.90;;;;;;5046008;28;20031;-75
2023/01/14 12:04:47;;;;;;;4.13;1.40;;;9.90;99.90;;;;;;5046955;28;20112;-76
2023/01/14 12:07:35;;;;;;;4.25;1.42;;;9.90;99.90;;;;;;5055827;28;20092;-79
2023/01/14 12:10:06;;;;;;;2.95;1.05;;;10.00;99.90;;;;;;5055507;28;20025;-78
2023/01/14 12:16:48;;;;;;;3.63;1.20;;;9.90;99.90;;;;;;5055235;28;20021;-75
2023/01/14 12:18:24;;;;;;;4.47;1.15;;;9.90;99.90;;;;;;5045008;28;20052;-76
2023/01/14 12:20:52;;;;;;;3.28;1.00;;;10.00;99.90;;;;;;5037328;28;20387;-78
2023/01/14 12:23:23;;;;;;;4.32;1.23;;;10.00;99.90;;;;;;5046668;28;20017;-76
2023/01/14 12:25:50;;;;;;;2.58;1.05;;;10.00;99.90;;;;;;5037596;28;20037;-77
2023/01/14 12:28:39;;;;;;;4.13;0.93;;;10.00;99.90;;;;;;5028028;28;20044;-78
2023/01/14 12:31:25;;;;;;;4.15;1.08;;;10.00;99.90;;;;;;5045552;28;20029;-79
2023/01/14 12:34:15;;;;;;;3.50;1.02;;;10.10;99.90;;;;;;5033939;28;20044;-78
2023/01/14 12:36:48;;;;;;;4.68;1.30;;;10.10;99.90;;;;;;5040693;28;20013;-75
2023/01/14 12:47:37;;;;;;;2.50;0.85;;;10.20;99.90;;;;;;5044077;28;20059;-77
2023/01/14 12:50:08;;;;;;;2.72;0.80;;;10.20;99.90;;;;;;5043549;28;20026;-78
2023/01/14 12:52:36;;;;;;;3.17;0.90;;;10.20;99.90;;;;;;5044699;28;20058;-79
2023/01/14 12:55:03;;;;;;;3.47;0.85;;;10.20;99.90;;;;;;5052409;28;20522;-76
2023/01/14 12:57:30;;;;;;;2.80;0.98;;;10.20;99.90;;;;;;5041527;28;20029;-80
2023/01/14 13:00:08;;;;;;;2.17;1.08;;;10.20;99.90;;;;;;5024483;28;20017;-78
2023/01/14 13:02:42;;;;;;;4.35;1.00;;;10.30;99.90;;;;;;5037124;28;20064;-78
2023/01/14 13:05:29;;;;;;;3.47;0.85;;;10.30;99.90;;;;;;5035564;28;20033;-79
2023/01/14 13:08:02;;;;;;;3.35;0.88;;;10.30;99.90;;;;;;5044669;28;20640;-77
2023/01/14 13:10:33;;;;;;;9.82;2.00;;;10.20;99.90;;;;;;5039708;28;20358;-76
2023/01/14 13:13:01;;;;;;;2.63;0.95;;;10.20;99.90;;;;;;5043232;28;20029;-77
2023/01/14 13:15:34;;;;;;;4.93;0.95;;;10.20;99.90;;;;;;5040801;28;20048;-78
2023/01/14 13:18:02;;;;;;;3.38;0.93;;;10.30;99.90;;;;;;5037861;28;20040;-77
2023/01/14 13:20:40;;;;;;;2.08;0.82;;;10.20;99.90;;;;;;5038286;28;20021;-79
2023/01/14 13:23:10;;;;;;;2.53;1.00;;;10.30;99.90;;;;;;5037755;28;20016;-78
2023/01/14 13:25:37;;;;;;;;;;;10.30;99.90;;;;;;5040949;28;20033;-77
2023/01/14 13:28:12;;;;;;;3.88;1.30;;;10.40;99.90;;;;;;5014591;28;19924;-78
2023/01/14 13:30:50;;;;;;;3.95;0.90;;;10.30;99.90;;;;;;5000608;28;20026;-79
2023/01/14 13:33:39;;;;;;;5.45;1.85;;;10.30;99.90;;;;;;5000238;28;20017;-78
2023/01/14 13:36:12;;;;;;;5.93;1.13;;;10.30;99.90;;;;;;4999596;28;20031;-79
2023/01/14 13:38:48;;;;;;;3.33;1.35;;;10.40;99.90;;;;;;4998206;28;20029;-78
2023/01/14 13:41:35;;;;;;;2.72;1.10;;;10.30;99.90;;;;;;5002000;28;20030;-78
2023/01/14 13:44:02;;;;;;;16.67;8.00;;;10.40;99.90;;;;;;4999369;28;20042;-77
2023/01/14 13:46:38;;;;;;;13.98;6.07;;;10.40;99.90;;;;;;4998707;28;20031;-77
2023/01/14 13:49:07;;;;;;;8.55;5.00;;;10.40;99.90;;;;;;5012194;28;20112;-77
2023/01/14 13:51:44;;;;;;;7.70;4.03;;;10.40;99.90;;;;;;4994265;28;20024;-75